Data for 07/06/2016

Time Sea-Level Adjusted Pressure Absolute Pressure Temperature Relative Humidity Dew Point   
(mb) (inHg) (mb) (inHg) (C) (F) (%) (C) (F)
00:05 1015 29.97 845 24.95 16.5 61.7 34 0.9 33.6
00:10 1015 29.97 845 24.95 16.4 61.5 35 0.8 33.5
00:15 1015 29.97 844 24.92 16.3 61.3 36 1.3 34.3
00:20 1015 29.97 844 24.92 16 60.8 41 2.9 37.3
00:25 1015 29.97 844 24.92 15.3 59.6 40 1.9 35.4
00:30 1015 29.97 844 24.92 15.1 59.3 45 3.3 37.9
00:35 1015 29.97 844 24.92 14.5 58.1 44 2.5 36.6
00:40 1015 29.97 844 24.92 14.3 57.7 45 2.5 36.6
00:45 1015 29.97 844 24.92 14 57.2 46 2.7 36.9
00:50 1015 29.97 844 24.92 13.7 56.6 47 2.8 37
00:55 1015 29.97 844 24.92 13.5 56.4 47 2.4 36.4
01:00 1015 29.97 844 24.92 13.5 56.3 47 2.4 36.4
01:05 1015 29.97 844 24.92 13.4 56.1 47 2.4 36.3
01:10 1015 29.97 844 24.92 13.2 55.8 48 2.5 36.6
01:15 1015 29.97 844 24.92 13 55.3 50 2.9 37.3
01:20 1015 29.97 844 24.92 12.8 55 51 3 37.3
01:25 1015 29.97 844 24.92 12.5 54.5 56 4 39.2
01:30 1015 29.97 844 24.92 12.6 54.7 49 2.4 36.2
01:35 1015 29.97 844 24.92 12.7 54.9 46 1.6 34.9
01:40 1015 29.97 844 24.92 12.8 55 46 1.5 34.6
01:45 1015 29.97 844 24.92 12.8 55.1 45 1.4 34.5
01:50 1015 29.97 844 24.92 12.9 55.3 45 1.3 34.3
01:55 1015 29.97 844 24.92 12.8 55.1 46 1.6 34.9
02:00 1015 29.97 844 24.92 12.7 54.8 47 1.7 35.1
02:05 1015 29.97 844 24.92 12.6 54.6 47 1.5 34.7
02:10 1015 29.97 844 24.92 12.7 54.8 47 1.6 34.9
02:15 1015 29.97 844 24.92 12.4 54.4 54 3.5 38.3
02:20 1015 29.97 844 24.92 11.5 52.7 56 3.1 37.6
02:25 1015 29.97 844 24.92 11.2 52.2 56 2.9 37.1
02:30 1015 29.97 844 24.92 11.2 52.2 54 2.4 36.3
02:35 1015 29.97 844 24.92 11.5 52.7 51 1.7 35.1
02:40 1015 29.97 844 24.92 11.8 53.3 52 2.4 36.3
02:45 1015 29.97 844 24.92 11.6 52.9 54 2.6 36.7
02:50 1015 29.97 844 24.92 11.4 52.4 55 2.7 36.9
02:55 1015 29.97 844 24.92 11.2 52.2 56 2.7 36.9
03:00 1015 29.97 844 24.92 11.1 52 56 2.6 36.8
03:05 1015 29.97 844 24.92 11.1 52.1 56 2.7 36.9
03:10 1015 29.97 844 24.92 11.1 52 56 2.8 37
03:15 1015 29.97 844 24.92 11 51.7 56 2.7 36.8
03:20 1015 29.97 844 24.92 10.9 51.7 56 2.7 36.8
03:25 1015 29.97 844 24.92 11 51.7 55 2.3 36.2
03:30 1015 29.97 844 24.92 11.2 52.2 54 2.3 36.2
03:35 1015 29.97 844 24.92 11.3 52.3 54 2.4 36.3
03:40 1015 29.97 844 24.92 11.1 52 55 2.5 36.5
03:45 1015 29.97 844 24.92 10.9 51.7 55 2.4 36.3
03:50 1015 29.97 844 24.92 10.8 51.5 56 2.5 36.5
03:55 1015 29.97 844 24.92 10.7 51.2 57 2.5 36.4
04:00 1015 29.97 844 24.92 10.7 51.2 56 2.3 36.1
04:05 1015 29.97 844 24.92 10.7 51.2 56 2.4 36.3
04:10 1015 29.97 844 24.92 10.7 51.3 55 2.1 35.8
04:15 1015 29.97 844 24.92 10.6 51 58 2.6 36.7
04:20 1015 29.97 844 24.92 10.3 50.6 59 2.6 36.7
04:25 1015 29.97 844 24.92 10.3 50.6 57 2.2 36
04:30 1015 29.97 844 24.92 10.6 51 54 1.8 35.2
04:35 1015 29.97 844 24.92 10.7 51.2 54 1.8 35.3
04:40 1015 29.97 844 24.92 10.7 51.2 55 1.9 35.5
04:45 1015 29.97 844 24.92 10.6 51.2 56 2.3 36.1
04:50 1015 29.97 844 24.92 10.7 51.3 56 2.3 36.1
04:55 1015 29.97 844 24.92 10.7 51.2 56 2.3 36.2
05:00 1015 29.97 844 24.92 10.7 51.2 54 1.7 35.1
05:05 1015 29.97 844 24.92 10.9 51.6 54 1.9 35.4
05:10 1015 29.97 844 24.92 10.9 51.7 52 1.6 34.9
05:15 1015 29.97 844 24.92 11 51.7 52 1.6 34.9
05:20 1015 29.97 844 24.92 10.9 51.6 54 2 35.6
05:25 1015 29.97 844 24.92 10.8 51.4 54 2 35.6
05:30 1015 29.97 844 24.92 10.5 51 56 2.2 36
05:35 1015 29.97 844 24.92 10.4 50.6 58 2.4 36.4
05:40 1015 29.97 844 24.92 10.3 50.6 58 2.4 36.4
05:45 1015 29.97 845 24.95 10.3 50.6 57 2.3 36.2
05:50 1015 29.97 845 24.95 10.3 50.5 59 2.7 36.9
05:55 1015 29.97 845 24.95 10.3 50.5 59 2.6 36.7
06:00 1015 29.97 845 24.95 10.6 51 56 2.2 36
06:05 1016 30 845 24.95 11.1 51.9 54 2.2 35.9
06:10 1016 30 845 24.95 11.5 52.6 53 2.3 36.1
06:15 1016 30 845 24.95 11.9 53.4 52 2.4 36.3
06:20 1016 30 845 24.95 12.1 53.7 52 2.7 36.8
06:25 1016 30 845 24.95 12.1 53.7 53 2.8 37
06:30 1016 30 845 24.95 11.9 53.4 53 2.8 37.1
06:35 1016 30 845 24.95 11.8 53.2 54 2.9 37.2
06:40 1016 30 845 24.95 11.9 53.5 53 2.7 36.8
06:45 1016 30 845 24.95 12.8 55 50 2.8 37
06:50 1016 30 845 24.95 13.9 57 46 2.6 36.6
06:55 1016 30 845 24.95 14.7 58.4 45 3 37.4
07:00 1016 30 845 24.95 15.3 59.5 44 3.1 37.5
07:05 1016 30 845 24.95 15.5 59.9 39 1.8 35.3
07:10 1016 30 845 24.95 15.8 60.5 42 3.2 37.7
07:15 1016 30 845 24.95 16.2 61.1 41 2.9 37.3
07:20 1016 30 845 24.95 16.3 61.4 41 3.1 37.5
07:25 1016 30 845 24.95 16.6 61.9 39 2.7 36.9
07:30 1016 30 845 24.95 17.1 62.7 35 1.5 34.7
07:35 1016 30 845 24.95 17 62.5 33 0.8 33.4
07:40 1016 30 845 24.95 17.1 62.8 32 0.4 32.7
07:45 1016 30 845 24.95 16.9 62.3 32 0.1 32.2
07:50 1016 30 845 24.95 17.4 63.2 30 -0.1 31.9
07:55 1016 30 845 24.95 17.6 63.7 31 0.5 32.9
08:00 1015 29.97 845 24.95 17.6 63.6 31 0.4 32.6
08:05 1016 30 845 24.95 17.8 64.1 30 0 32
08:10 1016 30 845 24.95 17.9 64.2 30 0.4 32.7
08:15 1016 30 845 24.95 18.2 64.7 31 0.7 33.3
08:20 1016 30 845 24.95 18.4 65.2 29 -0 32
08:25 1016 30 845 24.95 18.5 65.3 29 0.2 32.4
08:30 1016 30 845 24.95 18.5 65.2 29 0.1 32.2
08:35 1016 30 845 24.95 18.5 65.2 29 0.3 32.6
08:40 1016 30 845 24.95 18.7 65.7 29 0.7 33.2
08:45 1015 29.97 845 24.95 18.8 65.8 29 0.7 33.3
08:50 1015 29.97 845 24.95 19.1 66.4 30 1.4 34.4
08:55 1015 29.97 845 24.95 19.1 66.4 30 1.1 34
09:00 1015 29.97 844 24.92 19.4 67 27 -0.1 31.7
09:05 1015 29.97 844 24.92 18.9 66 28 0 32
09:10 1015 29.97 844 24.92 19.8 67.6 25 -0.5 31.2
09:15 1015 29.97 844 24.92 19.8 67.7 25 -0.8 30.5
09:20 1015 29.97 844 24.92 19.8 67.7 23 -1.6 29.1
09:25 1015 29.97 844 24.92 20.1 68.1 24 -0.8 30.5
09:30 1015 29.97 844 24.92 20.8 69.4 23 -0.9 30.4
09:35 1015 29.97 844 24.92 20.6 69.1 25 -0.2 31.7
09:40 1015 29.97 844 24.92 20.5 68.9 23 -1.1 30.1
09:45 1015 29.97 844 24.92 20.5 69 24 -0.4 31.2
09:50 1015 29.97 844 24.92 20.7 69.2 25 0 32
09:55 1015 29.97 844 24.92 21 69.7 24 -0.3 31.5
10:00 1015 29.97 844 24.92 20.6 69.1 25 0.3 32.5
10:05 1015 29.97 844 24.92 20.7 69.3 25 0 32
10:10 1015 29.97 844 24.92 20.6 69.2 26 0.7 33.2
10:15 1015 29.97 844 24.92 20.9 69.6 25 0.4 32.8
10:20 1015 29.97 844 24.92 20.8 69.4 26 0.7 33.2
10:25 1015 29.97 844 24.92 20.9 69.6 25 0.4 32.6
10:30 1015 29.97 844 24.92 21.2 70.1 25 0.7 33.2
10:35 1015 29.97 844 24.92 21 69.9 25 0.5 32.8
10:40 1015 29.97 844 24.92 21.5 70.7 24 0.2 32.3
10:45 1014 29.94 844 24.92 21.1 69.9 25 0.2 32.4
10:50 1014 29.94 844 24.92 21.4 70.5 24 -0.1 31.9
10:55 1014 29.94 844 24.92 22.1 71.8 23 0.5 32.9
11:00 1014 29.94 844 24.92 22.2 72 24 1.1 33.9
11:05 1014 29.94 843 24.89 21.5 70.7 24 0.2 32.4
11:10 1014 29.94 843 24.89 21.4 70.5 23 -0.2 31.6
11:15 1014 29.94 843 24.89 21.3 70.4 25 0.6 33.1
11:20 1014 29.94 844 24.92 21.2 70.2 24 -0.1 31.8
11:25 1014 29.94 843 24.89 21.6 70.8 23 -0.2 31.7
11:30 1014 29.94 844 24.92 21.7 71.1 23 -0.4 31.4
11:35 1014 29.94 844 24.92 21.5 70.6 23 -0.5 31
11:40 1014 29.94 843 24.89 21.8 71.3 22 -0.5 31.1
11:45 1014 29.94 843 24.89 22 71.6 22 -0.5 31
11:50 1014 29.94 843 24.89 21.6 70.9 23 -0.3 31.4
11:55 1014 29.94 843 24.89 22.3 72.1 21 -0.6 30.9
12:00 1014 29.94 843 24.89 22.2 72 22 -0.3 31.4
12:05 1014 29.94 843 24.89 22.1 71.8 23 0.5 32.9
12:10 1014 29.94 843 24.89 21.9 71.3 23 0 32.1
12:15 1014 29.94 843 24.89 22.4 72.2 21 -0.8 30.6
12:20 1014 29.94 843 24.89 22.2 72 22 -0 32
12:25 1014 29.94 843 24.89 22.9 73.2 21 -0.3 31.4
12:30 1014 29.94 843 24.89 23.5 74.3 21 0.2 32.3
12:35 1014 29.94 843 24.89 23.2 73.8 21 -0.3 31.5
12:40 1014 29.94 843 24.89 23.1 73.6 23 0.8 33.4
12:45 1014 29.94 843 24.89 23.1 73.6 22 0.8 33.4
12:50 1014 29.94 843 24.89 22.3 72.1 23 0.2 32.4
12:55 1014 29.94 843 24.89 21.7 71 24 0.3 32.5
13:00 1014 29.94 843 24.89 21.8 71.3 23 -0.1 31.8
13:05 1014 29.94 843 24.89 22.8 73 22 0.1 32.2
13:10 1014 29.94 843 24.89 22.8 73.1 22 0.2 32.3
13:15 1014 29.94 843 24.89 22.2 71.9 23 0.1 32.2
13:20 1014 29.94 843 24.89 21.8 71.3 24 0.4 32.7
13:25 1014 29.94 843 24.89 21.4 70.6 28 2.4 36.3
13:30 1014 29.94 843 24.89 21.1 69.9 29 2.5 36.5
13:35 1014 29.94 844 24.92 20.2 68.4 31 2.6 36.8
13:40 1015 29.97 844 24.92 19.5 67 32 2.6 36.7
13:45 1015 29.97 844 24.92 19.1 66.3 33 2.5 36.6
13:50 1015 29.97 844 24.92 19 66.3 33 2.8 37
13:55 1015 29.97 844 24.92 19.1 66.4 31 1.7 35
14:00 1015 29.97 845 24.95 19.5 67.1 31 1.9 35.4
14:05 1015 29.97 844 24.92 19.8 67.6 32 2.7 36.9
14:10 1015 29.97 845 24.95 19.2 66.6 31 1.9 35.5
14:15 1016 30 845 24.95 18.9 66.1 30 1.3 34.3
14:20 1016 30 845 24.95 18.6 65.4 31 1.3 34.4
14:25 1016 30 845 24.95 19.1 66.5 32 2.1 35.7
14:30 1016 30 845 24.95 19.1 66.3 31 1.7 35
14:35 1016 30 845 24.95 19.4 66.8 31 2.1 35.7
14:40 1016 30 845 24.95 19.2 66.6 32 2.1 35.8
14:45 1016 30 845 24.95 19.3 66.8 30 1.4 34.5
14:50 1016 30 845 24.95 19.3 66.8 30 1.3 34.3
14:55 1016 30 845 24.95 19.5 67 30 1.5 34.8
15:00 1016 30 845 24.95 20.1 68.1 29 1.7 35
15:05 1016 30 845 24.95 20.4 68.8 28 1.4 34.5
15:10 1016 30 845 24.95 20.1 68.1 29 1.5 34.7
15:15 1016 30 845 24.95 19.7 67.4 29 1.2 34.1
15:20 1016 30 845 24.95 19.1 66.4 30 1.3 34.4
15:25 1016 30 845 24.95 19.1 66.4 29 0.9 33.7
15:30 1016 30 845 24.95 20 68 28 1.1 33.9
15:35 1016 30 845 24.95 20 68 27 0.8 33.4
15:40 1016 30 845 24.95 20.3 68.5 27 0.9 33.6
15:45 1016 30 845 24.95 20.7 69.2 28 1.5 34.6
15:50 1016 30 845 24.95 20.5 68.9 28 1.7 35.1
15:55 1016 30 845 24.95 20 68 29 1.4 34.5
16:00 1016 30 845 24.95 19.8 67.7 28 1.1 34
16:05 1016 30 845 24.95 20.2 68.3 28 1.4 34.4
16:10 1016 30 845 24.95 20.1 68.2 28 1.3 34.3
16:15 1016 30 845 24.95 19.8 67.6 28 0.9 33.6
16:20 1016 30 845 24.95 19.7 67.4 29 1.3 34.3
16:25 1016 30 845 24.95 19.4 66.8 29 1.1 34
16:30 1016 30 845 24.95 19 66.2 31 1.6 34.9
16:35 1016 30 845 24.95 18.8 65.9 30 1 33.8
16:40 1016 30 845 24.95 19.1 66.4 31 1.6 35
16:45 1016 30 845 24.95 19.8 67.6 30 2 35.6
16:50 1016 30 845 24.95 20.3 68.5 27 1.1 34
16:55 1016 30 845 24.95 20.4 68.8 27 1.1 34
17:00 1016 30 845 24.95 20.3 68.6 26 0.2 32.3
17:05 1016 30 845 24.95 20.3 68.5 26 0.2 32.4
17:10 1016 30 845 24.95 20.4 68.7 26 0.6 33.1
17:15 1016 30 845 24.95 20.3 68.5 25 -0.2 31.6
17:20 1016 30 845 24.95 20.3 68.6 25 0 32
17:25 1016 30 845 24.95 20.3 68.5 26 0.1 32.3
17:30 1016 30 845 24.95 20.1 68.2 26 -0.1 31.9
17:35 1016 30 845 24.95 20.4 68.7 26 0.3 32.5
17:40 1016 30 845 24.95 20.2 68.3 26 0.3 32.6
17:45 1016 30 845 24.95 20.3 68.6 26 0.4 32.7
17:50 1016 30 845 24.95 20.1 68.1 28 1 33.8
17:55 1016 30 845 24.95 19.9 67.7 28 0.7 33.3
18:00 1016 30 845 24.95 20.1 68.2 28 1 33.8
18:05 1016 30 845 24.95 20.2 68.3 27 0.9 33.7
18:10 1016 30 845 24.95 20 68 29 1.4 34.6
18:15 1016 30 845 24.95 19.3 66.7 29 1.1 33.9
18:20 1016 30 845 24.95 19 66.2 29 0.9 33.7
18:25 1016 30 845 24.95 18.8 65.8 30 1.2 34.1
18:30 1016 30 845 24.95 18.8 65.8 30 1.2 34.2
18:35 1016 30 846 24.98 18.6 65.4 31 1.4 34.5
18:40 1016 30 846 24.98 18.4 65.2 30 0.7 33.2
18:45 1016 30 846 24.98 18.3 65 30 0.8 33.4
18:50 1017 30.03 846 24.98 18.1 64.6 31 0.6 33.1
18:55 1017 30.03 846 24.98 17.9 64.2 31 0.5 32.8
19:00 1017 30.03 846 24.98 17.6 63.7 32 0.8 33.5
19:05 1017 30.03 846 24.98 17.5 63.5 32 0.7 33.3
19:10 1017 30.03 846 24.98 17.6 63.6 32 0.8 33.5
19:15 1017 30.03 846 24.98 17.5 63.6 33 1.1 34
19:20 1017 30.03 846 24.98 17.4 63.4 33 1.1 34.1
19:25 1017 30.03 846 24.98 17.4 63.4 33 1.1 33.9
19:30 1017 30.03 846 24.98 17.3 63.1 33 1.1 34
19:35 1017 30.03 846 24.98 17 62.5 33 0.7 33.3
19:40 1017 30.03 846 24.98 16.8 62.3 33 0.8 33.4
19:45 1017 30.03 847 25.01 16.8 62.2 33 0.7 33.2
19:50 1017 30.03 846 24.98 16.7 62.1 35 1.1 34
19:55 1017 30.03 846 24.98 16.5 61.7 35 1.1 34
20:00 1017 30.03 847 25.01 16.2 61.1 35 0.8 33.4
20:05 1017 30.03 847 25.01 16.1 61 35 0.9 33.7
20:10 1017 30.03 847 25.01 16.1 61 35 0.9 33.7
20:15 1017 30.03 847 25.01 16 60.7 36 1.2 34.1
20:20 1017 30.03 847 25.01 15.9 60.5 37 1.2 34.1
20:25 1018 30.06 847 25.01 15.7 60.3 38 1.5 34.6
20:30 1018 30.06 847 25.01 15.5 59.9 38 1.4 34.5
20:35 1018 30.06 847 25.01 15.4 59.7 37 1 33.7
20:40 1018 30.06 847 25.01 15.2 59.4 37 0.8 33.5
20:45 1018 30.06 847 25.01 15 59.1 38 0.8 33.4
20:50 1018 30.06 847 25.01 14.8 58.6 39 1 33.8
20:55 1018 30.06 847 25.01 14.6 58.2 40 1.2 34.1
21:00 1018 30.06 847 25.01 14.1 57.4 41 1.2 34.2
21:05 1018 30.06 847 25.01 13.9 57 42 1.2 34.1
21:10 1018 30.06 848 25.04 13.9 57 42 1.3 34.4
21:15 1018 30.06 848 25.04 14 57.2 41 1 33.8
21:20 1018 30.06 848 25.04 14 57.2 41 1 33.8
21:25 1018 30.06 848 25.04 14 57.1 41 0.9 33.6
21:30 1018 30.06 848 25.04 13.8 56.9 41 1 33.7
21:35 1018 30.06 848 25.04 13.8 56.8 41 0.8 33.4
21:40 1019 30.09 848 25.04 13.8 56.8 41 0.9 33.6
21:45 1019 30.09 848 25.04 13.7 56.6 42 1 33.8
21:50 1019 30.09 848 25.04 13.6 56.4 42 0.8 33.5
21:55 1019 30.09 848 25.04 13.5 56.4 42 0.8 33.5
22:00 1019 30.09 848 25.04 13.4 56.1 44 1.5 34.6
22:05 1019 30.09 848 25.04 13.3 55.9 43 0.9 33.6
22:10 1019 30.09 848 25.04 13.1 55.7 43 1 33.7
22:15 1019 30.09 848 25.04 12.9 55.3 43 0.8 33.5
22:20 1019 30.09 848 25.04 12.8 55 44 0.8 33.4
22:25 1019 30.09 848 25.04 12.6 54.7 45 1 33.9
22:30 1019 30.09 848 25.04 12.3 54.1 47 1.4 34.5
22:35 1019 30.09 848 25.04 12 53.5 49 1.5 34.8
22:40 1019 30.09 848 25.04 11.5 52.7 49 1.3 34.4
22:45 1019 30.09 848 25.04 11.5 52.7 49 1.3 34.3
22:50 1019 30.09 848 25.04 11.5 52.6 49 1.1 33.9
22:55 1019 30.09 848 25.04 11.5 52.6 49 1.2 34.1
23:00 1019 30.09 848 25.04 11.4 52.5 48 1 33.7
23:05 1019 30.09 848 25.04 11.3 52.3 49 0.9 33.7
23:10 1019 30.09 848 25.04 11.1 52 49 0.9 33.7
23:15 1019 30.09 848 25.04 11.1 52 50 1 33.8
23:20 1019 30.09 848 25.04 11.1 51.9 51 1.4 34.5
23:25 1019 30.09 848 25.04 10.7 51.3 53 1.5 34.8
23:30 1019 30.09 848 25.04 10.4 50.8 54 1.7 35
23:35 1019 30.09 848 25.04 10.3 50.5 55 1.7 35
23:40 1019 30.09 848 25.04 10.1 50.2 56 1.9 35.4
23:45 1019 30.09 848 25.04 10 50 56 1.6 34.8
23:50 1019 30.09 848 25.04 9.9 49.8 56 1.7 35
23:55 1019 30.09 848 25.04 9.8 49.6 56 1.5 34.7
24:00 1019 30.09 848 25.04 9.8 49.6 56 1.5 34.7